Terminal Aerodrome Forecast
Issued by NWS

Home | Current Version | Previous Version | Text Only | Print | Product List | Glossary On
Versions: 1 2 3 4 5 6 7 8 9 10 11 12 13 14 15 16 17 18 19 20
059
FTUS43 KILX 120022 AAA
TAFDEC
TAF AMD
KDEC 120022Z 1200/1224 30017G30KT P6SM OVC045
     FM120100 31016G28KT P6SM OVC025
     FM120300 32016G30KT P6SM OVC015
     FM120700 33018G30KT P6SM BKN025
     FM121100 33017G28KT P6SM SCT030
     FM122300 30010KT P6SM FEW200=

USA.gov is the U.S. government's official web portal to all federal, state and local government web resources and services.